sensor_id;sensor_type;location;lat;lon;timestamp;pressure;altitude;pressure_sealevel;temperature;humidity
21623;BME280;10973;46.706;12.340;2023-12-07T00:00:17;87059.44;;;-2.05;55.58
21623;BME280;10973;46.706;12.340;2023-12-07T00:02:45;87053.81;;;-1.98;55.22
21623;BME280;10973;46.706;12.340;2023-12-07T00:05:12;87069.00;;;-2.05;55.05
21623;BME280;10973;46.706;12.340;2023-12-07T00:07:39;87062.00;;;-2.05;55.22
21623;BME280;10973;46.706;12.340;2023-12-07T00:10:08;87062.16;;;-2.01;55.04
21623;BME280;10973;46.706;12.340;2023-12-07T00:12:36;87065.34;;;-2.04;54.80
21623;BME280;10973;46.706;12.340;2023-12-07T00:15:04;87066.72;;;-2.07;54.64
21623;BME280;10973;46.706;12.340;2023-12-07T00:17:31;87061.72;;;-2.12;54.82
21623;BME280;10973;46.706;12.340;2023-12-07T00:19:59;87068.38;;;-2.11;54.84
21623;BME280;10973;46.706;12.340;2023-12-07T00:22:27;87069.72;;;-2.13;55.11
21623;BME280;10973;46.706;12.340;2023-12-07T00:24:54;87075.22;;;-2.15;55.03
21623;BME280;10973;46.706;12.340;2023-12-07T00:27:22;87076.44;;;-2.12;54.97
21623;BME280;10973;46.706;12.340;2023-12-07T00:29:49;87072.47;;;-2.10;54.75
21623;BME280;10973;46.706;12.340;2023-12-07T00:32:16;87073.84;;;-2.12;54.88
21623;BME280;10973;46.706;12.340;2023-12-07T00:34:44;87073.69;;;-2.25;54.63
21623;BME280;10973;46.706;12.340;2023-12-07T00:37:11;87080.38;;;-2.32;55.19
21623;BME280;10973;46.706;12.340;2023-12-07T00:39:41;87078.25;;;-2.39;55.04
21623;BME280;10973;46.706;12.340;2023-12-07T00:42:08;87072.00;;;-2.46;54.34
21623;BME280;10973;46.706;12.340;2023-12-07T00:44:40;87073.50;;;-2.54;54.83
21623;BME280;10973;46.706;12.340;2023-12-07T00:47:08;87075.31;;;-2.54;55.10
21623;BME280;10973;46.706;12.340;2023-12-07T00:49:38;87083.38;;;-2.47;55.06
21623;BME280;10973;46.706;12.340;2023-12-07T00:52:06;87073.50;;;-2.45;54.99
21623;BME280;10973;46.706;12.340;2023-12-07T00:54:33;87073.69;;;-2.42;55.11
21623;BME280;10973;46.706;12.340;2023-12-07T00:57:01;87072.59;;;-2.41;55.57
21623;BME280;10973;46.706;12.340;2023-12-07T00:59:28;87076.41;;;-2.47;55.26
21623;BME280;10973;46.706;12.340;2023-12-07T01:01:56;87079.44;;;-2.53;55.34
21623;BME280;10973;46.706;12.340;2023-12-07T01:04:23;87078.38;;;-2.52;55.03
21623;BME280;10973;46.706;12.340;2023-12-07T01:06:51;87072.59;;;-2.49;54.87
21623;BME280;10973;46.706;12.340;2023-12-07T01:09:18;87077.47;;;-2.48;55.15
21623;BME280;10973;46.706;12.340;2023-12-07T01:11:45;87081.25;;;-2.45;55.21
21623;BME280;10973;46.706;12.340;2023-12-07T01:14:13;87075.81;;;-2.44;54.97
21623;BME280;10973;46.706;12.340;2023-12-07T01:16:42;87080.78;;;-2.47;55.25
21623;BME280;10973;46.706;12.340;2023-12-07T01:19:10;87085.66;;;-2.46;55.29
21623;BME280;10973;46.706;12.340;2023-12-07T01:21:37;87083.69;;;-2.57;55.40
21623;BME280;10973;46.706;12.340;2023-12-07T01:24:05;87088.97;;;-2.62;55.37
21623;BME280;10973;46.706;12.340;2023-12-07T01:26:42;87086.66;;;-2.72;54.90
21623;BME280;10973;46.706;12.340;2023-12-07T01:29:10;87089.09;;;-2.67;55.02
21623;BME280;10973;46.706;12.340;2023-12-07T01:31:37;87092.00;;;-2.60;54.90
21623;BME280;10973;46.706;12.340;2023-12-07T01:34:05;87099.84;;;-2.82;55.03
21623;BME280;10973;46.706;12.340;2023-12-07T01:36:32;87105.03;;;-2.74;54.78
21623;BME280;10973;46.706;12.340;2023-12-07T01:39:00;87104.56;;;-2.76;54.69
21623;BME280;10973;46.706;12.340;2023-12-07T01:41:27;87107.63;;;-2.65;54.66
21623;BME280;10973;46.706;12.340;2023-12-07T01:43:55;87107.00;;;-2.79;55.04
21623;BME280;10973;46.706;12.340;2023-12-07T01:46:23;87111.19;;;-2.92;55.07
21623;BME280;10973;46.706;12.340;2023-12-07T01:48:50;87114.84;;;-2.84;54.79
21623;BME280;10973;46.706;12.340;2023-12-07T01:51:19;87116.06;;;-2.82;54.61
21623;BME280;10973;46.706;12.340;2023-12-07T01:53:48;87115.78;;;-2.80;54.22
21623;BME280;10973;46.706;12.340;2023-12-07T01:56:16;87107.72;;;-2.88;54.29
21623;BME280;10973;46.706;12.340;2023-12-07T01:58:44;87111.63;;;-2.90;54.83
21623;BME280;10973;46.706;12.340;2023-12-07T02:01:12;87114.41;;;-2.86;54.53
21623;BME280;10973;46.706;12.340;2023-12-07T02:03:41;87114.50;;;-3.00;54.61
21623;BME280;10973;46.706;12.340;2023-12-07T02:06:09;87109.50;;;-2.97;54.52
21623;BME280;10973;46.706;12.340;2023-12-07T02:08:37;87117.22;;;-2.97;54.84
21623;BME280;10973;46.706;12.340;2023-12-07T02:11:05;87117.66;;;-3.03;55.19
21623;BME280;10973;46.706;12.340;2023-12-07T02:13:33;87124.50;;;-2.99;54.94
21623;BME280;10973;46.706;12.340;2023-12-07T02:16:07;87126.16;;;-3.03;55.20
21623;BME280;10973;46.706;12.340;2023-12-07T02:19:21;87129.06;;;-3.26;55.41
21623;BME280;10973;46.706;12.340;2023-12-07T02:21:38;87130.53;;;-3.34;55.68
21623;BME280;10973;46.706;12.340;2023-12-07T02:24:11;87144.72;;;-3.23;55.40
21623;BME280;10973;46.706;12.340;2023-12-07T02:26:41;87145.44;;;-3.22;55.36
21623;BME280;10973;46.706;12.340;2023-12-07T02:29:09;87151.50;;;-3.27;55.09
21623;BME280;10973;46.706;12.340;2023-12-07T02:31:36;87150.25;;;-3.29;55.14
21623;BME280;10973;46.706;12.340;2023-12-07T02:34:04;87149.72;;;-3.18;54.84
21623;BME280;10973;46.706;12.340;2023-12-07T02:36:34;87152.56;;;-3.28;54.83
21623;BME280;10973;46.706;12.340;2023-12-07T02:39:03;87148.22;;;-3.19;54.78
21623;BME280;10973;46.706;12.340;2023-12-07T02:41:33;87140.19;;;-3.17;54.58
21623;BME280;10973;46.706;12.340;2023-12-07T02:44:02;87143.41;;;-3.34;55.31
21623;BME280;10973;46.706;12.340;2023-12-07T02:46:30;87159.94;;;-3.35;55.20
21623;BME280;10973;46.706;12.340;2023-12-07T02:48:58;87150.69;;;-3.36;55.38
21623;BME280;10973;46.706;12.340;2023-12-07T02:51:27;87158.22;;;-3.48;56.05
21623;BME280;10973;46.706;12.340;2023-12-07T02:53:54;87165.41;;;-3.58;55.83
21623;BME280;10973;46.706;12.340;2023-12-07T02:56:21;87152.59;;;-3.50;55.97
21623;BME280;10973;46.706;12.340;2023-12-07T02:58:49;87147.75;;;-3.43;56.14
21623;BME280;10973;46.706;12.340;2023-12-07T03:01:16;87152.22;;;-3.35;56.14
21623;BME280;10973;46.706;12.340;2023-12-07T03:03:44;87154.94;;;-3.31;55.64
21623;BME280;10973;46.706;12.340;2023-12-07T03:06:11;87152.44;;;-3.23;55.70
21623;BME280;10973;46.706;12.340;2023-12-07T03:08:39;87153.94;;;-3.22;55.83
21623;BME280;10973;46.706;12.340;2023-12-07T03:11:06;87156.81;;;-3.23;55.71
21623;BME280;10973;46.706;12.340;2023-12-07T03:13:34;87158.53;;;-3.19;55.92
21623;BME280;10973;46.706;12.340;2023-12-07T03:16:01;87158.97;;;-3.17;56.11
21623;BME280;10973;46.706;12.340;2023-12-07T03:18:34;87158.63;;;-3.24;55.74
21623;BME280;10973;46.706;12.340;2023-12-07T03:21:02;87157.16;;;-3.16;55.73
21623;BME280;10973;46.706;12.340;2023-12-07T03:23:29;87149.47;;;-3.08;55.89
21623;BME280;10973;46.706;12.340;2023-12-07T03:25:57;87163.25;;;-3.12;56.21
21623;BME280;10973;46.706;12.340;2023-12-07T03:28:25;87150.25;;;-3.07;56.28
21623;BME280;10973;46.706;12.340;2023-12-07T03:30:52;87147.81;;;-3.04;55.72
21623;BME280;10973;46.706;12.340;2023-12-07T03:33:19;87147.06;;;-3.04;55.73
21623;BME280;10973;46.706;12.340;2023-12-07T03:35:47;87146.78;;;-3.03;55.38
21623;BME280;10973;46.706;12.340;2023-12-07T03:38:15;87149.94;;;-3.06;55.77
21623;BME280;10973;46.706;12.340;2023-12-07T03:40:42;87150.53;;;-3.09;55.44
21623;BME280;10973;46.706;12.340;2023-12-07T03:43:10;87157.78;;;-3.11;55.37
21623;BME280;10973;46.706;12.340;2023-12-07T03:45:38;87159.59;;;-3.11;55.04
21623;BME280;10973;46.706;12.340;2023-12-07T03:48:05;87161.56;;;-3.17;55.47
21623;BME280;10973;46.706;12.340;2023-12-07T03:50:32;87157.09;;;-3.25;55.80
21623;BME280;10973;46.706;12.340;2023-12-07T03:53:00;87153.91;;;-3.30;56.04
21623;BME280;10973;46.706;12.340;2023-12-07T03:55:27;87147.28;;;-3.23;56.03
21623;BME280;10973;46.706;12.340;2023-12-07T03:57:55;87156.28;;;-3.12;55.30
21623;BME280;10973;46.706;12.340;2023-12-07T04:00:22;87160.22;;;-3.14;55.28
21623;BME280;10973;46.706;12.340;2023-12-07T04:02:50;87175.63;;;-3.23;55.21
21623;BME280;10973;46.706;12.340;2023-12-07T04:05:17;87176.63;;;-3.32;55.41
21623;BME280;10973;46.706;12.340;2023-12-07T04:07:45;87172.28;;;-3.23;55.37
21623;BME280;10973;46.706;12.340;2023-12-07T04:10:12;87168.72;;;-3.14;55.42
21623;BME280;10973;46.706;12.340;2023-12-07T04:12:40;87174.31;;;-3.12;55.01
21623;BME280;10973;46.706;12.340;2023-12-07T04:15:08;87171.69;;;-3.20;54.89
21623;BME280;10973;46.706;12.340;2023-12-07T04:17:36;87166.94;;;-3.27;54.94
21623;BME280;10973;46.706;12.340;2023-12-07T04:20:04;87178.03;;;-3.26;55.01
21623;BME280;10973;46.706;12.340;2023-12-07T04:22:32;87174.41;;;-3.25;54.87
21623;BME280;10973;46.706;12.340;2023-12-07T04:24:59;87183.47;;;-3.28;54.55
21623;BME280;10973;46.706;12.340;2023-12-07T04:27:27;87185.88;;;-3.31;55.01
21623;BME280;10973;46.706;12.340;2023-12-07T04:29:54;87188.59;;;-3.36;55.11
21623;BME280;10973;46.706;12.340;2023-12-07T04:32:21;87194.63;;;-3.41;55.17
21623;BME280;10973;46.706;12.340;2023-12-07T04:34:49;87189.38;;;-3.49;55.04
21623;BME280;10973;46.706;12.340;2023-12-07T04:37:17;87194.91;;;-3.65;55.42
21623;BME280;10973;46.706;12.340;2023-12-07T04:39:44;87206.94;;;-3.74;56.18
21623;BME280;10973;46.706;12.340;2023-12-07T04:42:12;87207.19;;;-3.62;55.69
21623;BME280;10973;46.706;12.340;2023-12-07T04:44:39;87209.25;;;-3.50;55.27
21623;BME280;10973;46.706;12.340;2023-12-07T04:47:07;87209.47;;;-3.60;55.63
21623;BME280;10973;46.706;12.340;2023-12-07T04:49:34;87204.09;;;-3.50;55.32
21623;BME280;10973;46.706;12.340;2023-12-07T04:52:02;87214.16;;;-3.62;55.60
21623;BME280;10973;46.706;12.340;2023-12-07T04:54:29;87215.97;;;-3.63;55.43
21623;BME280;10973;46.706;12.340;2023-12-07T04:56:57;87205.03;;;-3.68;55.54
21623;BME280;10973;46.706;12.340;2023-12-07T04:59:25;87214.91;;;-3.62;55.63
21623;BME280;10973;46.706;12.340;2023-12-07T05:01:52;87205.78;;;-3.68;55.27
21623;BME280;10973;46.706;12.340;2023-12-07T05:04:20;87211.06;;;-3.73;55.69
21623;BME280;10973;46.706;12.340;2023-12-07T05:06:48;87210.38;;;-3.78;55.86
21623;BME280;10973;46.706;12.340;2023-12-07T05:09:15;87209.97;;;-3.72;55.57
21623;BME280;10973;46.706;12.340;2023-12-07T05:11:42;87216.38;;;-3.69;55.23
21623;BME280;10973;46.706;12.340;2023-12-07T05:14:10;87215.50;;;-3.65;54.71
21623;BME280;10973;46.706;12.340;2023-12-07T05:16:38;87215.59;;;-3.70;55.29
21623;BME280;10973;46.706;12.340;2023-12-07T05:19:05;87225.03;;;-3.65;54.50
21623;BME280;10973;46.706;12.340;2023-12-07T05:21:33;87222.69;;;-3.75;55.06
21623;BME280;10973;46.706;12.340;2023-12-07T05:24:01;87228.09;;;-3.77;55.09
21623;BME280;10973;46.706;12.340;2023-12-07T05:26:28;87230.56;;;-3.72;54.71
21623;BME280;10973;46.706;12.340;2023-12-07T05:28:56;87228.00;;;-3.72;54.75
21623;BME280;10973;46.706;12.340;2023-12-07T05:31:23;87236.00;;;-3.95;55.24
21623;BME280;10973;46.706;12.340;2023-12-07T05:33:51;87245.13;;;-3.89;55.09
21623;BME280;10973;46.706;12.340;2023-12-07T05:36:18;87243.75;;;-4.09;55.66
21623;BME280;10973;46.706;12.340;2023-12-07T05:38:46;87248.03;;;-4.04;54.72
21623;BME280;10973;46.706;12.340;2023-12-07T05:41:14;87244.84;;;-4.01;54.82
21623;BME280;10973;46.706;12.340;2023-12-07T05:43:41;87249.91;;;-4.10;55.01
21623;BME280;10973;46.706;12.340;2023-12-07T05:46:10;87250.69;;;-4.09;54.91
21623;BME280;10973;46.706;12.340;2023-12-07T05:48:37;87259.75;;;-4.12;55.05
21623;BME280;10973;46.706;12.340;2023-12-07T05:51:05;87262.91;;;-4.28;54.80
21623;BME280;10973;46.706;12.340;2023-12-07T05:53:33;87265.69;;;-4.39;54.72
21623;BME280;10973;46.706;12.340;2023-12-07T05:56:01;87267.38;;;-4.20;54.90
21623;BME280;10973;46.706;12.340;2023-12-07T05:58:31;87270.31;;;-4.13;54.47
21623;BME280;10973;46.706;12.340;2023-12-07T06:01:01;87281.56;;;-4.09;54.61
21623;BME280;10973;46.706;12.340;2023-12-07T06:03:29;87286.25;;;-4.25;54.43
21623;BME280;10973;46.706;12.340;2023-12-07T06:05:57;87278.88;;;-4.18;54.63
21623;BME280;10973;46.706;12.340;2023-12-07T06:08:24;87264.88;;;-4.12;53.69
21623;BME280;10973;46.706;12.340;2023-12-07T06:10:52;87266.22;;;-4.14;54.24
21623;BME280;10973;46.706;12.340;2023-12-07T06:13:19;87266.13;;;-4.23;54.33
21623;BME280;10973;46.706;12.340;2023-12-07T06:15:47;87270.69;;;-4.20;54.41
21623;BME280;10973;46.706;12.340;2023-12-07T06:18:14;87265.47;;;-4.28;54.86
21623;BME280;10973;46.706;12.340;2023-12-07T06:20:44;87266.78;;;-4.31;54.49
21623;BME280;10973;46.706;12.340;2023-12-07T06:23:12;87274.72;;;-4.27;54.51
21623;BME280;10973;46.706;12.340;2023-12-07T06:25:40;87278.63;;;-4.30;54.57
21623;BME280;10973;46.706;12.340;2023-12-07T06:28:07;87281.84;;;-4.24;54.84
21623;BME280;10973;46.706;12.340;2023-12-07T06:30:35;87283.00;;;-4.17;54.62
21623;BME280;10973;46.706;12.340;2023-12-07T06:33:02;87278.69;;;-4.21;54.85
21623;BME280;10973;46.706;12.340;2023-12-07T06:35:30;87288.06;;;-4.25;55.14
21623;BME280;10973;46.706;12.340;2023-12-07T06:37:57;87291.66;;;-4.26;54.68
21623;BME280;10973;46.706;12.340;2023-12-07T06:40:25;87291.47;;;-4.30;54.47
21623;BME280;10973;46.706;12.340;2023-12-07T06:42:52;87294.91;;;-4.35;54.81
21623;BME280;10973;46.706;12.340;2023-12-07T06:45:20;87294.91;;;-4.35;54.58
21623;BME280;10973;46.706;12.340;2023-12-07T06:47:47;87305.28;;;-4.40;54.71
21623;BME280;10973;46.706;12.340;2023-12-07T06:50:14;87304.81;;;-4.42;54.81
21623;BME280;10973;46.706;12.340;2023-12-07T06:52:42;87309.56;;;-4.35;54.94
21623;BME280;10973;46.706;12.340;2023-12-07T06:55:10;87298.59;;;-4.27;55.02
21623;BME280;10973;46.706;12.340;2023-12-07T06:57:37;87307.84;;;-4.26;54.98
21623;BME280;10973;46.706;12.340;2023-12-07T07:00:06;87312.22;;;-4.26;54.46
21623;BME280;10973;46.706;12.340;2023-12-07T07:02:34;87308.25;;;-4.32;54.89
21623;BME280;10973;46.706;12.340;2023-12-07T07:05:01;87307.09;;;-4.26;54.74
21623;BME280;10973;46.706;12.340;2023-12-07T07:07:28;87308.72;;;-4.30;55.11
21623;BME280;10973;46.706;12.340;2023-12-07T07:09:58;87307.56;;;-4.24;54.63
21623;BME280;10973;46.706;12.340;2023-12-07T07:12:25;87319.09;;;-4.22;54.53
21623;BME280;10973;46.706;12.340;2023-12-07T07:14:53;87319.47;;;-4.28;54.24
21623;BME280;10973;46.706;12.340;2023-12-07T07:17:21;87319.69;;;-4.25;54.35
21623;BME280;10973;46.706;12.340;2023-12-07T07:19:49;87323.59;;;-4.27;54.55
21623;BME280;10973;46.706;12.340;2023-12-07T07:22:16;87319.31;;;-4.18;54.32
21623;BME280;10973;46.706;12.340;2023-12-07T07:24:44;87319.31;;;-4.18;54.02
21623;BME280;10973;46.706;12.340;2023-12-07T07:27:11;87322.53;;;-4.13;54.01
21623;BME280;10973;46.706;12.340;2023-12-07T07:29:39;87326.25;;;-4.32;54.34
21623;BME280;10973;46.706;12.340;2023-12-07T07:32:06;87328.25;;;-4.29;54.29
21623;BME280;10973;46.706;12.340;2023-12-07T07:34:34;87318.22;;;-4.17;54.47
21623;BME280;10973;46.706;12.340;2023-12-07T07:37:02;87322.53;;;-4.13;54.61
21623;BME280;10973;46.706;12.340;2023-12-07T07:39:29;87323.19;;;-4.07;54.38
21623;BME280;10973;46.706;12.340;2023-12-07T07:41:58;87320.25;;;-4.01;53.87
21623;BME280;10973;46.706;12.340;2023-12-07T07:44:25;87311.19;;;-3.98;54.34
21623;BME280;10973;46.706;12.340;2023-12-07T07:46:53;87317.75;;;-4.06;54.09
21623;BME280;10973;46.706;12.340;2023-12-07T07:49:20;87322.25;;;-3.98;54.42
21623;BME280;10973;46.706;12.340;2023-12-07T07:51:48;87325.75;;;-3.94;54.45
21623;BME280;10973;46.706;12.340;2023-12-07T07:54:15;87322.81;;;-3.87;54.81
21623;BME280;10973;46.706;12.340;2023-12-07T07:56:43;87314.69;;;-3.81;54.80
21623;BME280;10973;46.706;12.340;2023-12-07T07:59:11;87317.16;;;-3.76;54.82
21623;BME280;10973;46.706;12.340;2023-12-07T08:01:39;87322.00;;;-3.74;54.78
21623;BME280;10973;46.706;12.340;2023-12-07T08:04:06;87316.00;;;-3.70;54.95
21623;BME280;10973;46.706;12.340;2023-12-07T08:06:34;87326.38;;;-3.61;55.19
21623;BME280;10973;46.706;12.340;2023-12-07T08:09:04;87323.59;;;-3.51;55.13
21623;BME280;10973;46.706;12.340;2023-12-07T08:11:31;87328.81;;;-3.42;55.06
21623;BME280;10973;46.706;12.340;2023-12-07T08:13:59;87328.72;;;-3.37;55.31
21623;BME280;10973;46.706;12.340;2023-12-07T08:16:27;87323.72;;;-3.34;54.97
21623;BME280;10973;46.706;12.340;2023-12-07T08:18:55;87323.53;;;-3.24;54.93
21623;BME280;10973;46.706;12.340;2023-12-07T08:21:24;87327.50;;;-3.18;54.68
21623;BME280;10973;46.706;12.340;2023-12-07T08:23:57;87322.72;;;-3.11;54.55
21623;BME280;10973;46.706;12.340;2023-12-07T08:26:24;87322.44;;;-3.09;54.92
21623;BME280;10973;46.706;12.340;2023-12-07T08:28:52;87323.84;;;-3.03;54.93
21623;BME280;10973;46.706;12.340;2023-12-07T08:31:20;87324.50;;;-2.98;54.96
21623;BME280;10973;46.706;12.340;2023-12-07T08:33:47;87333.63;;;-2.92;55.34
21623;BME280;10973;46.706;12.340;2023-12-07T08:36:15;87339.34;;;-2.95;55.31
21623;BME280;10973;46.706;12.340;2023-12-07T08:38:42;87336.31;;;-2.97;55.44
21623;BME280;10973;46.706;12.340;2023-12-07T08:41:10;87341.53;;;-2.88;55.49
21623;BME280;10973;46.706;12.340;2023-12-07T08:43:39;87347.22;;;-2.77;55.31
21623;BME280;10973;46.706;12.340;2023-12-07T08:46:07;87342.13;;;-2.69;55.31
21623;BME280;10973;46.706;12.340;2023-12-07T08:48:36;87344.22;;;-2.71;55.74
21623;BME280;10973;46.706;12.340;2023-12-07T08:51:09;87341.25;;;-2.64;55.86
21623;BME280;10973;46.706;12.340;2023-12-07T08:53:40;87345.41;;;-2.55;56.08
21623;BME280;10973;46.706;12.340;2023-12-07T08:56:08;87341.31;;;-2.47;56.08
21623;BME280;10973;46.706;12.340;2023-12-07T08:58:35;87337.84;;;-2.43;56.10
21623;BME280;10973;46.706;12.340;2023-12-07T09:01:03;87338.38;;;-2.32;56.26
21623;BME280;10973;46.706;12.340;2023-12-07T09:03:31;87336.31;;;-2.22;56.25
21623;BME280;10973;46.706;12.340;2023-12-07T09:06:00;87333.88;;;-2.18;56.22
21623;BME280;10973;46.706;12.340;2023-12-07T09:08:28;87330.72;;;-2.15;56.51
21623;BME280;10973;46.706;12.340;2023-12-07T09:10:58;87326.94;;;-2.09;56.26
21623;BME280;10973;46.706;12.340;2023-12-07T09:13:26;87326.94;;;-2.09;56.25
21623;BME280;10973;46.706;12.340;2023-12-07T09:15:53;87328.34;;;-2.03;56.46
21623;BME280;10973;46.706;12.340;2023-12-07T09:18:21;87333.38;;;-1.98;56.60
21623;BME280;10973;46.706;12.340;2023-12-07T09:20:48;87321.53;;;-1.90;56.59
21623;BME280;10973;46.706;12.340;2023-12-07T09:23:16;87328.13;;;-1.84;56.67
21623;BME280;10973;46.706;12.340;2023-12-07T09:25:44;87328.44;;;-1.77;56.37
21623;BME280;10973;46.706;12.340;2023-12-07T09:28:13;87326.94;;;-1.70;56.35
21623;BME280;10973;46.706;12.340;2023-12-07T09:30:40;87327.25;;;-1.63;56.17
21623;BME280;10973;46.706;12.340;2023-12-07T09:33:08;87322.72;;;-1.57;55.82
21623;BME280;10973;46.706;12.340;2023-12-07T09:35:35;87327.44;;;-1.51;55.67
21623;BME280;10973;46.706;12.340;2023-12-07T09:38:03;87322.59;;;-1.43;55.56
21623;BME280;10973;46.706;12.340;2023-12-07T09:40:30;87327.44;;;-1.42;55.66
21623;BME280;10973;46.706;12.340;2023-12-07T09:42:58;87321.97;;;-1.40;55.80
21623;BME280;10973;46.706;12.340;2023-12-07T09:45:26;87324.56;;;-1.40;56.14
21623;BME280;10973;46.706;12.340;2023-12-07T09:47:55;87313.63;;;-1.37;56.55
21623;BME280;10973;46.706;12.340;2023-12-07T09:50:26;87313.50;;;-1.32;56.68
21623;BME280;10973;46.706;12.340;2023-12-07T09:52:57;87312.13;;;-1.30;56.63
21623;BME280;10973;46.706;12.340;2023-12-07T09:55:35;87307.41;;;-1.28;56.67
21623;BME280;10973;46.706;12.340;2023-12-07T09:58:06;87320.19;;;-1.23;57.05
21623;BME280;10973;46.706;12.340;2023-12-07T10:00:36;87311.22;;;-1.17;57.37
21623;BME280;10973;46.706;12.340;2023-12-07T10:03:07;87304.06;;;-1.11;57.72
21623;BME280;10973;46.706;12.340;2023-12-07T10:05:57;87306.66;;;-1.03;57.54
21623;BME280;10973;46.706;12.340;2023-12-07T10:08:32;87303.94;;;-0.98;57.48
21623;BME280;10973;46.706;12.340;2023-12-07T10:11:06;87307.13;;;-0.92;57.05
21623;BME280;10973;46.706;12.340;2023-12-07T10:13:36;87311.53;;;-0.84;57.03
21623;BME280;10973;46.706;12.340;2023-12-07T10:16:15;87308.78;;;-0.79;56.71
21623;BME280;10973;46.706;12.340;2023-12-07T10:18:43;87314.25;;;-0.72;56.37
21623;BME280;10973;46.706;12.340;2023-12-07T10:21:12;87297.03;;;-0.68;56.00
21623;BME280;10973;46.706;12.340;2023-12-07T10:23:42;87309.06;;;-0.63;56.11
21623;BME280;10973;46.706;12.340;2023-12-07T10:26:11;87310.56;;;-0.54;55.76
21623;BME280;10973;46.706;12.340;2023-12-07T10:28:40;87301.28;;;-0.46;55.25
21623;BME280;10973;46.706;12.340;2023-12-07T10:31:09;87299.59;;;-0.42;55.05
21623;BME280;10973;46.706;12.340;2023-12-07T10:33:37;87306.44;;;-0.38;55.34
21623;BME280;10973;46.706;12.340;2023-12-07T10:36:07;87306.44;;;-0.38;55.65
21623;BME280;10973;46.706;12.340;2023-12-07T10:38:37;87298.06;;;-0.35;55.54
21623;BME280;10973;46.706;12.340;2023-12-07T10:41:07;87297.59;;;-0.28;56.18
21623;BME280;10973;46.706;12.340;2023-12-07T10:43:43;87304.44;;;-0.24;55.96
21623;BME280;10973;46.706;12.340;2023-12-07T10:46:15;87293.47;;;-0.21;55.63
21623;BME280;10973;46.706;12.340;2023-12-07T10:48:45;87289.63;;;-0.15;55.77
21623;BME280;10973;46.706;12.340;2023-12-07T10:54:07;87290.97;;;-0.09;55.38
21623;BME280;10973;46.706;12.340;2023-12-07T10:56:44;87287.16;;;-0.03;55.55
21623;BME280;10973;46.706;12.340;2023-12-07T10:59:16;87279.84;;;-0.01;55.02
21623;BME280;10973;46.706;12.340;2023-12-07T11:01:58;87286.69;;;0.04;55.21
21623;BME280;10973;46.706;12.340;2023-12-07T11:04:29;87281.50;;;0.04;54.64
21623;BME280;10973;46.706;12.340;2023-12-07T11:07:09;87276.78;;;0.06;54.67
21623;BME280;10973;46.706;12.340;2023-12-07T11:09:47;87282.56;;;0.03;55.20
21623;BME280;10973;46.706;12.340;2023-12-07T11:12:44;87282.06;;;0.18;55.08
21623;BME280;10973;46.706;12.340;2023-12-07T11:15:14;87272.41;;;0.27;55.13
21623;BME280;10973;46.706;12.340;2023-12-07T11:17:54;87270.84;;;0.35;54.83
21623;BME280;10973;46.706;12.340;2023-12-07T11:20:46;87262.97;;;0.52;54.22
21623;BME280;10973;46.706;12.340;2023-12-07T11:23:19;87260.09;;;0.74;54.28
21623;BME280;10973;46.706;12.340;2023-12-07T11:25:51;87263.50;;;0.87;53.68
21623;BME280;10973;46.706;12.340;2023-12-07T11:28:41;87253.56;;;1.09;53.86
21623;BME280;10973;46.706;12.340;2023-12-07T11:31:13;87254.13;;;1.35;53.12
21623;BME280;10973;46.706;12.340;2023-12-07T11:33:43;87259.38;;;1.60;51.62
21623;BME280;10973;46.706;12.340;2023-12-07T11:36:13;87257.38;;;1.77;51.03
21623;BME280;10973;46.706;12.340;2023-12-07T11:41:55;87248.03;;;2.09;50.11
21623;BME280;10973;46.706;12.340;2023-12-07T11:44:50;87243.91;;;2.08;48.57
21623;BME280;10973;46.706;12.340;2023-12-07T11:47:20;87249.41;;;1.94;48.63
21623;BME280;10973;46.706;12.340;2023-12-07T11:49:51;87254.00;;;1.65;49.26
21623;BME280;10973;46.706;12.340;2023-12-07T11:52:21;87247.59;;;1.62;49.54
21623;BME280;10973;46.706;12.340;2023-12-07T11:54:50;87247.78;;;1.45;49.62
21623;BME280;10973;46.706;12.340;2023-12-07T11:57:20;87249.53;;;1.20;49.51
21623;BME280;10973;46.706;12.340;2023-12-07T11:59:50;87251.63;;;1.06;49.50
21623;BME280;10973;46.706;12.340;2023-12-07T12:02:19;87253.56;;;0.89;50.00
21623;BME280;10973;46.706;12.340;2023-12-07T12:04:50;87252.50;;;0.69;50.14
21623;BME280;10973;46.706;12.340;2023-12-07T12:07:20;87260.50;;;0.55;50.55
21623;BME280;10973;46.706;12.340;2023-12-07T12:09:52;87265.16;;;0.41;51.16
21623;BME280;10973;46.706;12.340;2023-12-07T12:12:23;87262.84;;;0.19;51.86
21623;BME280;10973;46.706;12.340;2023-12-07T12:14:52;87260.56;;;0.18;52.10
21623;BME280;10973;46.706;12.340;2023-12-07T12:17:22;87262.00;;;0.07;52.39
21623;BME280;10973;46.706;12.340;2023-12-07T12:19:53;87258.06;;;-0.08;52.17
21623;BME280;10973;46.706;12.340;2023-12-07T12:22:20;87258.69;;;-0.03;51.93
21623;BME280;10973;46.706;12.340;2023-12-07T12:24:51;87256.97;;;0.02;52.01
21623;BME280;10973;46.706;12.340;2023-12-07T12:27:20;87256.28;;;-0.16;51.69
21623;BME280;10973;46.706;12.340;2023-12-07T12:29:50;87259.03;;;-0.21;51.74
21623;BME280;10973;46.706;12.340;2023-12-07T12:32:18;87250.06;;;-0.24;51.94
21623;BME280;10973;46.706;12.340;2023-12-07T12:34:45;87246.41;;;-0.23;52.11
21623;BME280;10973;46.706;12.340;2023-12-07T12:37:15;87243.81;;;-0.23;52.16
21623;BME280;10973;46.706;12.340;2023-12-07T12:39:42;87240.78;;;-0.25;51.96
21623;BME280;10973;46.706;12.340;2023-12-07T12:42:11;87240.63;;;-0.28;51.85
21623;BME280;10973;46.706;12.340;2023-12-07T12:44:42;87234.88;;;-0.34;51.56
21623;BME280;10973;46.706;12.340;2023-12-07T12:47:12;87242.66;;;-0.42;51.92
21623;BME280;10973;46.706;12.340;2023-12-07T12:49:42;87239.63;;;-0.44;51.66
21623;BME280;10973;46.706;12.340;2023-12-07T12:52:16;87239.50;;;-0.48;51.94
21623;BME280;10973;46.706;12.340;2023-12-07T12:54:48;87238.56;;;-0.52;51.91
21623;BME280;10973;46.706;12.340;2023-12-07T12:57:19;87235.97;;;-0.52;51.71
21623;BME280;10973;46.706;12.340;2023-12-07T12:59:48;87243.78;;;-0.60;51.94
21623;BME280;10973;46.706;12.340;2023-12-07T13:02:17;87244.38;;;-0.63;51.94
21623;BME280;10973;46.706;12.340;2023-12-07T13:04:47;87252.91;;;-0.63;51.89